ADDS METAR Data INFO
IDs: Format: Raw Decoded Include TAF

Data at: 1851 UTC 16 Dec 2017

KLEW 161756Z AUTO 25005KT 10SM CLR M02/M11 A2981 RMK AO2 SLP113 T10221106 10017 21172 56012 FZRANO
KLEW 161656Z AUTO 00000KT 10SM CLR 01/M08 A2982 RMK AO2 SLP115 T00111083 FZRANO
KLEW 161556Z AUTO 00000KT 10SM CLR M03/M06 A2984 RMK AO2 SLP119 T10281061 FZRANO
KLEW 161456Z AUTO 02003KT 10SM CLR M09/M11 A2985 RMK AO2 SLP124 T10891111 53012 FZRANO
KLEW 161356Z AUTO 00000KT 10SM SCT075 M10/M12 A2984 RMK AO2 SLP121 T11001122 FZRANO
KLEW 161256Z AUTO 00000KT 10SM SCT070 BKN085 M14/M15 A2982 RMK AO2 SLP115 T11391150 FZRANO
KLEW 161156Z AUTO 00000KT 10SM CLR M17/M18 A2981 RMK AO2 SLP113 60000 T11671183 11094 21167 53021 FZRANO
KLEW 161056Z AUTO 00000KT 10SM CLR M15/M17 A2979 RMK AO2 SLP106 T11501172 FZRANO
KLEW 160956Z AUTO 00000KT 10SM CLR M12/M14 A2977 RMK AO2 SLP097 T11221139 FZRANO
KLEW 160856Z AUTO 00000KT 10SM CLR M12/M14 A2975 RMK AO2 SLP092 60000 T11171139 58006 FZRANO
KLEW 160756Z AUTO 00000KT 10SM OVC085 M10/M12 A2975 RMK AO2 SLP093 T11001117 FZRANO
KLEW 160656Z AUTO 00000KT 10SM SCT100 BKN120 M10/M11 A2977 RMK AO2 SNE16 SLP097 P0000 T11001111 FZRANO
KLEW 160556Z AUTO 00000KT 6SM -SN BR OVC041 M09/M11 A2977 RMK AO2 SLP098 P0000 60000 T10941106 11094 21106 58023 FZRANO
KLEW 160456Z AUTO 32003KT 3SM -SN BR OVC032 M09/M11 A2980 RMK AO2 SLP107 P0000 T10941111 FZRANO
KLEW 160447Z AUTO 33003KT 3SM -SN BR BKN028 OVC034 M09/M11 A2980 RMK AO2 P0000 FZRANO
KLEW 160431Z AUTO 36003KT 3SM -SN BR SCT028 OVC036 M09/M11 A2981 RMK AO2 P0000 FZRANO
KLEW 160408Z AUTO 00000KT 2 1/2SM -SN BR BKN028 OVC034 M09/M12 A2982 RMK AO2 VIS 2V4 P0000 FZRANO
KLEW 160356Z AUTO 00000KT 4SM -SN BR OVC031 M09/M12 A2982 RMK AO2 SNB30 SLP115 P0000 T10941117 410441233 FZRANO
KLEW 160256Z AUTO 00000KT 10SM BKN050 OVC060 M10/M12 A2984 RMK AO2 SLP121 T11001122 56013 FZRANO
KLEW 160156Z AUTO 00000KT 10SM OVC070 M11/M14 A2985 RMK AO2 SLP124 T11061139 FZRANO
KLEW 160056Z AUTO 00000KT 10SM OVC095 M10/M13 A2985 RMK AO2 SLP125 T11001128 FZRANO
KLEW 152356Z AUTO 00000KT 10SM OVC090 M10/M14 A2988 RMK AO2 SLP134 T11001144 11044 21100 58022 FZRANO
KLEW 152256Z AUTO 36003KT 10SM OVC110 M10/M13 A2990 RMK AO2 SLP143 T11001133 FZRANO
KLEW 152156Z AUTO 00000KT 10SM OVC110 M09/M13 A2993 RMK AO2 SLP151 T10891133 FZRANO
KLEW 152056Z AUTO 17003KT 10SM BKN110 M08/M14 A2994 RMK AO2 SLP157 T10831139 56013 FZRANO
KLEW 151956Z AUTO 14004KT 10SM CLR M08/M15 A2995 RMK AO2 SLP161 T10781150 FZRANO
KLEW 151856Z AUTO 00000KT 10SM CLR M06/M15 A2996 RMK AO2 SLP163 T10611150 FZRANO
KLEW 151756Z AUTO 00000KT 10SM CLR M04/M13 A2998 RMK AO2 SLP170 T10441133 11044 21233 58021 FZRANO
KLEW 151656Z AUTO 00000KT 10SM CLR M07/M12 A3000 RMK AO2 SLP177 T10721117 FZRANO
KLEW 151556Z AUTO 00000KT 10SM CLR M04/M09 A3003 RMK AO2 SLP185 T10441089 FZRANO
KLEW 151456Z AUTO 00000KT 10SM CLR M09/M14 A3004 RMK AO2 SLP191 T10941139 53013 FZRANO
KLEW 151356Z AUTO 00000KT 10SM CLR M16/M19 A3003 RMK AO2 SLP187 T11611194 FZRANO
KLEW 151256Z AUTO 00000KT 10SM CLR M20/M22 A3001 RMK AO2 SLP181 T12001222 FZRANO
KLEW 151156Z AUTO 00000KT 10SM CLR M23/M26 A3000 RMK AO2 SLP178 T12331261 11211 21233 53014 FZRANO
KLEW 151056Z AUTO 00000KT 10SM CLR M23/M26 A2999 RMK AO2 SLP173 T12331261 FZRANO
KLEW 150956Z AUTO 00000KT 10SM CLR M23/M26 A2998 RMK AO2 SLP168 T12331256 FZRANO TSNO
KLEW 150856Z AUTO 00000KT 10SM CLR M22/M25 A2996 RMK AO2 SLP164 T12221250 51017 FZRANO
KLEW 150756Z AUTO 00000KT 10SM CLR M22/M25 A2995 RMK AO2 SLP160 T12221250 FZRANO
KLEW 150656Z AUTO 00000KT 10SM CLR M22/M25 A2993 RMK AO2 SLP154 T12221250 FZRANO